Time;durP1;ratioP1;P1;durP2;ratioP2;P2;SDS_P1;SDS_P2;PMS_P1;PMS_P2;Temp;Humidity;BMP_temperature;BMP_pressure;BME280_temperature;BME280_humidity;BME280_pressure;Samples;Min_cycle;Max_cycle;Signal;HPM_P1;HPM_P2
2022/10/18 00:00:39;;;;;;;0.65;0.50;;;17.80;84.50;;;;;;5092482;28;20032;-73
2022/10/18 00:03:05;;;;;;;1.45;0.82;;;17.90;84.70;;;;;;5092542;28;20020;-73
2022/10/18 00:05:31;;;;;;;2.20;0.68;;;17.80;84.50;;;;;;5074325;28;20493;-73
2022/10/18 00:07:56;;;;;;;0.95;0.80;;;17.90;84.70;;;;;;5102608;28;20374;-72
2022/10/18 00:10:23;;;;;;;1.85;0.88;;;17.80;85.60;;;;;;5112851;28;20413;-73
2022/10/18 00:12:49;;;;;;;0.73;0.57;;;17.90;84.70;;;;;;5094740;28;20422;-73
2022/10/18 00:15:15;;;;;;;3.28;0.60;;;17.80;84.70;;;;;;5112833;28;20059;-73
2022/10/18 00:17:40;;;;;;;3.60;1.23;;;17.80;84.70;;;;;;5111260;28;20059;-73
2022/10/18 00:20:07;;;;;;;2.50;0.68;;;17.80;84.70;;;;;;5111384;28;20110;-73
2022/10/18 00:22:37;;;;;;;1.00;0.70;;;17.90;84.80;;;;;;5111433;28;20531;-73
2022/10/18 00:25:03;;;;;;;2.22;0.73;;;17.90;84.80;;;;;;5111527;28;20020;-73
2022/10/18 00:27:29;;;;;;;1.08;0.80;;;17.80;84.70;;;;;;5094680;28;20521;-73
2022/10/18 00:29:54;;;;;;;4.57;0.70;;;17.90;84.80;;;;;;5094137;28;20111;-73
2022/10/18 00:32:20;;;;;;;1.13;0.70;;;17.90;84.80;;;;;;5112675;28;20028;-73
2022/10/18 00:34:46;;;;;;;1.33;0.80;;;17.80;84.80;;;;;;5105911;28;20089;-73
2022/10/18 00:37:11;;;;;;;4.72;1.13;;;17.90;84.90;;;;;;5092182;28;20440;-73
2022/10/18 00:39:37;;;;;;;2.80;0.80;;;17.90;84.90;;;;;;5092058;28;20478;-73
2022/10/18 00:42:03;;;;;;;2.67;0.90;;;17.80;84.90;;;;;;5090980;28;20076;-73
2022/10/18 00:44:28;;;;;;;1.23;0.82;;;17.90;84.90;;;;;;5092086;28;20016;-73
2022/10/18 00:46:57;;;;;;;1.67;0.60;;;17.90;85.00;;;;;;5092105;28;20066;-73
2022/10/18 00:49:29;;;;;;;1.85;0.73;;;17.80;84.90;;;;;;5074042;28;20020;-73
2022/10/18 00:52:37;;;;;;;0.93;0.57;;;17.80;84.80;;;;;;5092003;28;20020;-73
2022/10/18 00:55:03;;;;;;;1.48;0.82;;;17.90;84.90;;;;;;5088943;28;20079;-73
2022/10/18 00:57:29;;;;;;;3.20;1.00;;;17.90;85.00;;;;;;5074240;28;20020;-73
2022/10/18 00:59:54;;;;;;;1.48;0.70;;;17.80;84.90;;;;;;5073766;28;20479;-73
2022/10/18 01:02:20;;;;;;;1.65;0.75;;;17.90;85.00;;;;;;5091816;28;20038;-73
2022/10/18 01:04:46;;;;;;;1.55;0.70;;;17.80;86.00;;;;;;5090739;28;20100;-73
2022/10/18 01:07:21;;;;;;;1.65;0.75;;;17.90;85.00;;;;;;5096394;28;20019;-73
2022/10/18 01:09:52;;;;;;;1.52;0.80;;;17.80;85.00;;;;;;5115855;28;20032;-73
2022/10/18 01:12:36;;;;;;;1.48;0.80;;;17.90;85.10;;;;;;5114602;28;20027;-73
2022/10/18 01:15:14;;;;;;;1.35;0.85;;;17.80;85.00;;;;;;5114770;28;20024;-73
2022/10/18 01:18:02;;;;;;;1.02;0.60;;;17.80;85.00;;;;;;5115575;28;20020;-73
2022/10/18 01:20:53;;;;;;;1.90;0.88;;;17.80;85.00;;;;;;5114513;28;20028;-73
2022/10/18 01:23:37;;;;;;;1.13;0.40;;;17.90;85.00;;;;;;5114721;28;20033;-73
2022/10/18 01:26:16;;;;;;;2.10;0.70;;;17.80;85.10;;;;;;5115756;28;20106;-73
2022/10/18 01:28:54;;;;;;;2.90;0.55;;;17.90;85.10;;;;;;5114360;28;20123;-73
2022/10/18 01:31:24;;;;;;;1.42;0.57;;;17.80;85.10;;;;;;5115354;28;20049;-73
2022/10/18 01:33:56;;;;;;;1.80;0.75;;;17.90;85.10;;;;;;5097753;28;20118;-73
2022/10/18 01:36:27;;;;;;;1.65;0.70;;;17.80;85.10;;;;;;5077580;28;20063;-73
2022/10/18 01:38:54;;;;;;;2.20;0.98;;;17.80;85.10;;;;;;5077670;28;20115;-73
2022/10/18 01:41:20;;;;;;;2.55;0.85;;;17.80;85.10;;;;;;5093813;28;20028;-73
2022/10/18 01:43:47;;;;;;;1.17;0.70;;;17.90;85.20;;;;;;5076949;28;20023;-73
2022/10/18 01:46:14;;;;;;;1.85;0.77;;;17.80;85.20;;;;;;5076854;28;20066;-73
2022/10/18 01:48:40;;;;;;;1.70;0.55;;;17.90;85.20;;;;;;5076894;28;20020;-73
2022/10/18 01:51:05;;;;;;;3.35;0.98;;;17.80;85.20;;;;;;5093644;28;20085;-73
2022/10/18 01:53:32;;;;;;;2.10;1.00;;;17.80;85.20;;;;;;5093530;28;20572;-73
2022/10/18 01:56:19;;;;;;;4.45;0.80;;;17.80;85.20;;;;;;5093555;28;20023;-73
2022/10/18 01:58:56;;;;;;;2.88;0.50;;;17.90;85.20;;;;;;5077790;28;20030;-73
2022/10/18 02:01:33;;;;;;;1.10;0.65;;;17.90;85.20;;;;;;5094477;28;20081;-73
2022/10/18 02:04:04;;;;;;;2.67;1.05;;;17.80;85.20;;;;;;5093597;28;20111;-73
2022/10/18 02:06:32;;;;;;;1.20;0.80;;;17.90;85.20;;;;;;5076766;28;20047;-73
2022/10/18 02:09:02;;;;;;;2.00;0.80;;;17.80;85.10;;;;;;5095417;28;20035;-73
2022/10/18 02:11:28;;;;;;;1.08;0.70;;;17.80;85.10;;;;;;5097039;28;20087;-73
2022/10/18 02:14:15;;;;;;;0.90;0.60;;;17.80;85.20;;;;;;5096608;28;20107;-73
2022/10/18 02:16:48;;;;;;;1.98;0.60;;;17.90;85.20;;;;;;5112667;28;20031;-73
2022/10/18 02:19:22;;;;;;;1.95;0.75;;;17.80;85.20;;;;;;5097297;28;20058;-73
2022/10/18 02:21:48;;;;;;;2.05;0.65;;;17.80;85.20;;;;;;5113260;28;20065;-73
2022/10/18 02:24:13;;;;;;;2.55;0.70;;;17.80;85.20;;;;;;5096482;28;20032;-73
2022/10/18 02:26:39;;;;;;;0.65;0.60;;;17.90;85.30;;;;;;5113191;28;20027;-73
2022/10/18 02:29:04;;;;;;;0.93;0.70;;;17.80;85.20;;;;;;5096108;28;20031;-73
2022/10/18 02:31:42;;;;;;;1.15;0.70;;;17.80;85.30;;;;;;5113331;28;20024;-73
2022/10/18 02:34:21;;;;;;;0.70;0.60;;;17.80;85.30;;;;;;5096832;28;20031;-73
2022/10/18 02:36:54;;;;;;;0.60;0.55;;;17.80;85.30;;;;;;5092771;28;20069;-73
2022/10/18 02:39:28;;;;;;;4.75;0.80;;;17.80;85.50;;;;;;5076433;28;20074;-73
2022/10/18 02:41:54;;;;;;;1.40;0.68;;;17.80;85.40;;;;;;5092690;28;20111;-72
2022/10/18 02:44:20;;;;;;;0.65;0.38;;;17.80;85.40;;;;;;5075645;28;20544;-73
2022/10/18 02:46:45;;;;;;;1.15;0.50;;;17.80;85.40;;;;;;5075597;28;20513;-73
2022/10/18 02:49:11;;;;;;;2.67;0.68;;;17.80;85.40;;;;;;5075729;28;20086;-73
2022/10/18 02:51:36;;;;;;;1.45;0.70;;;17.80;85.40;;;;;;5093878;28;20475;-73
2022/10/18 02:54:02;;;;;;;1.70;0.52;;;17.90;85.50;;;;;;5093324;28;20039;-73
2022/10/18 02:56:28;;;;;;;2.00;0.70;;;17.90;85.40;;;;;;5092597;28;20020;-73
2022/10/18 02:58:53;;;;;;;2.30;0.50;;;17.90;85.50;;;;;;5093153;28;20027;-73
2022/10/18 03:01:19;;;;;;;1.25;0.70;;;17.90;85.50;;;;;;5093621;28;20062;-73
2022/10/18 03:03:45;;;;;;;1.38;0.50;;;17.90;85.40;;;;;;5075332;28;20062;-73
2022/10/18 03:06:10;;;;;;;1.75;0.85;;;17.80;85.50;;;;;;5093493;28;20035;-73
2022/10/18 03:08:36;;;;;;;0.52;0.50;;;17.90;85.40;;;;;;5108978;28;20474;-73
2022/10/18 03:11:01;;;;;;;1.15;0.68;;;17.90;85.50;;;;;;5113550;28;20031;-73
2022/10/18 03:13:27;;;;;;;0.63;0.50;;;17.90;85.40;;;;;;5112026;28;20436;-73
2022/10/18 03:15:53;;;;;;;4.40;0.73;;;17.80;85.40;;;;;;5113602;28;20026;-73
2022/10/18 03:18:18;;;;;;;1.52;0.70;;;17.90;85.50;;;;;;5113570;28;20032;-73
2022/10/18 03:20:44;;;;;;;1.08;0.80;;;17.80;85.50;;;;;;5113507;28;20028;-73
2022/10/18 03:23:09;;;;;;;1.40;0.60;;;17.80;85.50;;;;;;5112183;28;20032;-73
2022/10/18 03:25:35;;;;;;;2.90;0.60;;;17.80;85.50;;;;;;5113558;28;20110;-73
2022/10/18 03:28:01;;;;;;;3.88;0.55;;;17.80;85.50;;;;;;5113263;28;20028;-73
2022/10/18 03:30:26;;;;;;;3.05;0.95;;;17.80;85.50;;;;;;5112583;28;20055;-73
2022/10/18 03:32:53;;;;;;;1.23;0.40;;;17.80;85.50;;;;;;5113269;28;20454;-72
2022/10/18 03:35:18;;;;;;;2.25;0.55;;;17.90;85.50;;;;;;5102362;28;20111;-73
2022/10/18 03:37:44;;;;;;;3.38;0.57;;;17.80;85.50;;;;;;5091625;28;20103;-73
2022/10/18 03:40:10;;;;;;;2.78;0.68;;;17.80;85.50;;;;;;5092747;28;20021;-73
2022/10/18 03:42:35;;;;;;;0.80;0.52;;;17.90;85.50;;;;;;5092646;28;20031;-73
2022/10/18 03:45:01;;;;;;;3.15;0.60;;;17.80;85.50;;;;;;5092575;28;20130;-73
2022/10/18 03:47:27;;;;;;;0.65;0.50;;;17.80;85.50;;;;;;5088859;28;20447;-73
2022/10/18 03:49:53;;;;;;;2.20;0.60;;;17.80;85.60;;;;;;5093107;28;20020;-73
2022/10/18 03:52:18;;;;;;;3.55;0.80;;;17.90;85.60;;;;;;5091980;28;20069;-73
2022/10/18 03:54:44;;;;;;;1.50;0.50;;;17.80;85.60;;;;;;5091653;28;20040;-73
2022/10/18 03:57:10;;;;;;;3.05;0.55;;;17.80;85.60;;;;;;5089591;28;20046;-72
2022/10/18 03:59:35;;;;;;;1.20;0.40;;;17.90;85.70;;;;;;5092497;28;20520;-73
2022/10/18 04:02:01;;;;;;;1.23;0.40;;;17.90;85.60;;;;;;5092499;28;20043;-72
2022/10/18 04:04:26;;;;;;;0.88;0.40;;;17.80;85.70;;;;;;5092480;28;20020;-72
2022/10/18 04:06:52;;;;;;;2.75;0.70;;;17.80;85.70;;;;;;5092305;28;20097;-72
2022/10/18 04:09:18;;;;;;;1.13;0.50;;;17.80;85.70;;;;;;5112789;28;20031;-73
2022/10/18 04:11:43;;;;;;;2.80;0.60;;;17.90;85.70;;;;;;5112549;28;20023;-73
2022/10/18 04:14:09;;;;;;;1.05;0.50;;;17.90;85.80;;;;;;5112763;28;20054;-73
2022/10/18 04:16:35;;;;;;;1.17;0.68;;;17.80;85.70;;;;;;5093850;28;20115;-73
2022/10/18 04:19:00;;;;;;;0.88;0.65;;;17.80;85.70;;;;;;5092327;28;20052;-72
2022/10/18 04:21:26;;;;;;;1.95;0.70;;;17.80;85.60;;;;;;5092525;28;20032;-72
2022/10/18 04:23:51;;;;;;;1.05;0.50;;;17.80;85.70;;;;;;5092312;28;20074;-72
2022/10/18 04:26:17;;;;;;;0.82;0.60;;;17.80;85.70;;;;;;5092168;28;20028;-72
2022/10/18 04:28:43;;;;;;;2.05;0.60;;;17.80;85.70;;;;;;5092184;28;20362;-73
2022/10/18 04:31:10;;;;;;;2.30;0.55;;;17.80;85.70;;;;;;5091107;28;20067;-73
2022/10/18 04:33:36;;;;;;;2.30;0.50;;;17.90;85.80;;;;;;5091224;28;20100;-72
2022/10/18 04:36:01;;;;;;;0.70;0.50;;;17.80;85.70;;;;;;5091915;28;20457;-72
2022/10/18 04:38:27;;;;;;;1.00;0.65;;;17.80;85.70;;;;;;5091079;28;20091;-73
2022/10/18 04:40:53;;;;;;;1.02;0.60;;;17.80;85.60;;;;;;5092411;28;20036;-72
2022/10/18 04:43:18;;;;;;;2.88;0.60;;;17.80;85.70;;;;;;5078036;28;20032;-73
2022/10/18 04:45:45;;;;;;;1.15;0.80;;;17.80;85.60;;;;;;5095162;28;20106;-73
2022/10/18 04:48:11;;;;;;;3.38;0.50;;;17.80;85.60;;;;;;5078052;28;20012;-73
2022/10/18 04:50:36;;;;;;;1.42;0.65;;;17.80;85.60;;;;;;5094664;28;20020;-73
2022/10/18 04:53:02;;;;;;;0.45;0.45;;;17.80;85.70;;;;;;5095771;28;20502;-73
2022/10/18 04:55:27;;;;;;;0.90;0.60;;;17.80;85.60;;;;;;5095790;28;20028;-73
2022/10/18 04:57:53;;;;;;;1.58;0.60;;;17.80;85.60;;;;;;5095858;28;20501;-73
2022/10/18 05:00:19;;;;;;;1.80;0.47;;;17.80;85.70;;;;;;5096098;28;20034;-73
2022/10/18 05:02:44;;;;;;;0.73;0.50;;;17.80;85.70;;;;;;5095622;28;20028;-73
2022/10/18 05:05:10;;;;;;;1.38;0.50;;;17.80;85.70;;;;;;5095639;28;20028;-73
2022/10/18 05:07:36;;;;;;;1.20;0.40;;;17.80;85.70;;;;;;5103064;28;20024;-73
2022/10/18 05:10:02;;;;;;;1.05;0.50;;;17.80;85.70;;;;;;5114620;28;20032;-73
2022/10/18 05:12:28;;;;;;;0.85;0.50;;;17.80;85.80;;;;;;5114729;28;20015;-73
2022/10/18 05:14:54;;;;;;;0.73;0.70;;;17.80;85.70;;;;;;5115960;28;20020;-73
2022/10/18 05:17:19;;;;;;;1.65;0.80;;;17.80;85.80;;;;;;5115954;28;20127;-74
2022/10/18 05:19:45;;;;;;;1.20;0.40;;;17.80;85.80;;;;;;5115912;28;20491;-73
2022/10/18 05:22:10;;;;;;;2.47;0.93;;;17.80;85.80;;;;;;5115966;28;20478;-73
2022/10/18 05:24:36;;;;;;;1.15;0.80;;;17.80;85.90;;;;;;5115610;28;20098;-73
2022/10/18 05:27:02;;;;;;;2.17;1.02;;;17.80;85.90;;;;;;5115768;28;20114;-72
2022/10/18 05:29:27;;;;;;;4.07;0.55;;;17.80;85.90;;;;;;5115674;28;20023;-73
2022/10/18 05:31:53;;;;;;;0.88;0.60;;;17.80;85.90;;;;;;5114484;28;20434;-73
2022/10/18 05:34:19;;;;;;;3.10;0.80;;;17.80;85.90;;;;;;5112919;28;20027;-73
2022/10/18 05:36:46;;;;;;;0.77;0.60;;;17.80;85.90;;;;;;5095189;28;20397;-72
2022/10/18 05:39:11;;;;;;;0.70;0.47;;;17.80;85.90;;;;;;5093587;28;20024;-73
2022/10/18 05:41:37;;;;;;;1.20;0.43;;;17.80;85.90;;;;;;5094001;28;20072;-73
2022/10/18 05:44:03;;;;;;;2.50;0.60;;;17.80;85.90;;;;;;5093728;28;20032;-72
2022/10/18 05:46:29;;;;;;;1.05;0.50;;;17.80;85.90;;;;;;5094968;28;20024;-73
2022/10/18 05:48:54;;;;;;;2.70;0.80;;;17.80;85.90;;;;;;5094899;28;20031;-73
2022/10/18 05:51:20;;;;;;;1.25;0.60;;;17.80;86.00;;;;;;5094690;28;20039;-74
2022/10/18 05:53:46;;;;;;;1.08;0.70;;;17.80;85.90;;;;;;5092462;28;20611;-73
2022/10/18 05:56:12;;;;;;;1.55;0.50;;;17.80;85.90;;;;;;5093404;28;20111;-73
2022/10/18 05:58:37;;;;;;;4.65;0.50;;;17.80;85.90;;;;;;5094817;28;20024;-73
2022/10/18 06:01:04;;;;;;;0.50;0.40;;;17.80;86.00;;;;;;5093573;28;20464;-73
2022/10/18 06:03:30;;;;;;;1.85;0.90;;;17.80;86.00;;;;;;5093424;28;20028;-73
2022/10/18 06:06:03;;;;;;;1.35;0.80;;;17.80;85.90;;;;;;5093326;28;20441;-73
2022/10/18 06:08:29;;;;;;;0.73;0.40;;;17.80;85.90;;;;;;5107647;28;20031;-73
2022/10/18 06:10:55;;;;;;;2.30;0.52;;;17.80;86.00;;;;;;5114974;28;20023;-73
2022/10/18 06:13:20;;;;;;;2.15;0.50;;;17.80;86.00;;;;;;5113553;28;20061;-73
2022/10/18 06:15:46;;;;;;;1.30;0.80;;;17.80;86.00;;;;;;5113659;28;20084;-73
2022/10/18 06:18:12;;;;;;;2.40;0.68;;;17.80;86.00;;;;;;5113432;28;20445;-73
2022/10/18 06:20:37;;;;;;;1.27;0.57;;;17.80;86.00;;;;;;5114736;28;20431;-73
2022/10/18 06:23:03;;;;;;;0.75;0.50;;;17.80;86.00;;;;;;5113458;28;20066;-74
2022/10/18 06:25:28;;;;;;;0.65;0.60;;;17.80;85.80;;;;;;5114804;28;20111;-73
2022/10/18 06:27:54;;;;;;;0.68;0.63;;;17.80;84.00;;;;;;5114461;28;20107;-73
2022/10/18 06:30:20;;;;;;;0.75;0.63;;;17.70;84.30;;;;;;5114605;28;20032;-73
2022/10/18 06:32:46;;;;;;;1.15;0.50;;;17.70;84.20;;;;;;5112241;28;20024;-73
2022/10/18 06:35:12;;;;;;;4.95;0.70;;;17.70;84.00;;;;;;5078933;28;20107;-73
2022/10/18 06:37:38;;;;;;;0.40;0.40;;;17.70;84.00;;;;;;5079530;28;20127;-73
2022/10/18 06:40:04;;;;;;;1.65;1.20;;;17.70;84.00;;;;;;5081273;28;20031;-73
2022/10/18 06:42:30;;;;;;;0.75;0.60;;;17.70;84.10;;;;;;5082473;28;20031;-73
2022/10/18 06:44:56;;;;;;;0.52;0.52;;;17.70;83.90;;;;;;5076309;28;20005;-73
2022/10/18 06:47:22;;;;;;;0.55;0.55;;;17.70;84.00;;;;;;5062359;28;20028;-73
2022/10/18 06:49:47;;;;;;;0.63;0.50;;;17.70;84.10;;;;;;5077655;28;20032;-74
2022/10/18 06:52:16;;;;;;;4.85;1.20;;;17.70;84.10;;;;;;5092026;28;20031;-74
2022/10/18 06:54:42;;;;;;;10.80;2.15;;;17.70;84.10;;;;;;5091828;28;20119;-74
2022/10/18 06:57:08;;;;;;;13.00;2.50;;;17.70;84.10;;;;;;5092997;28;20142;-74
2022/10/18 06:59:34;;;;;;;10.27;1.80;;;17.70;84.00;;;;;;5092368;28;20043;-74
2022/10/18 07:01:59;;;;;;;8.50;1.10;;;17.70;84.00;;;;;;5075454;28;20406;-74
2022/10/18 07:04:28;;;;;;;19.30;2.60;;;17.70;84.00;;;;;;5092904;28;20028;-74
2022/10/18 07:06:53;;;;;;;15.85;1.88;;;17.70;84.00;;;;;;5096786;28;20493;-73
2022/10/18 07:09:19;;;;;;;16.10;2.45;;;17.70;84.00;;;;;;5108210;28;20035;-74
2022/10/18 07:11:45;;;;;;;15.52;3.17;;;17.70;84.00;;;;;;5096028;28;20069;-74
2022/10/18 07:14:10;;;;;;;14.13;2.65;;;17.70;84.00;;;;;;5095211;28;20024;-74
2022/10/18 07:16:36;;;;;;;12.40;2.65;;;17.70;84.00;;;;;;5112551;28;20120;-74
2022/10/18 07:19:02;;;;;;;9.45;2.10;;;17.70;84.00;;;;;;5112960;28;20030;-73
2022/10/18 07:21:27;;;;;;;10.60;2.70;;;17.70;84.10;;;;;;5112295;28;20534;-73
2022/10/18 07:23:53;;;;;;;16.98;2.58;;;17.70;84.10;;;;;;5101497;28;20103;-73
2022/10/18 07:26:27;;;;;;;12.73;2.95;;;17.60;84.00;;;;;;5093084;28;20024;-73
2022/10/18 07:29:01;;;;;;;13.57;2.95;;;17.60;84.10;;;;;;5091827;28;20107;-74
2022/10/18 07:31:27;;;;;;;12.95;3.00;;;17.60;84.00;;;;;;5075961;28;20107;-74
2022/10/18 07:33:52;;;;;;;15.30;3.40;;;17.60;84.00;;;;;;5074817;28;20210;-74
2022/10/18 07:36:20;;;;;;;10.57;2.72;;;17.60;84.00;;;;;;5091600;28;20454;-74
2022/10/18 07:38:45;;;;;;;12.55;3.33;;;17.60;84.00;;;;;;5091578;28;20028;-74
2022/10/18 07:41:11;;;;;;;13.40;2.75;;;17.60;84.10;;;;;;5106544;28;20354;-73
2022/10/18 07:43:40;;;;;;;12.43;2.80;;;17.60;84.00;;;;;;5113109;28;20016;-73
2022/10/18 07:46:06;;;;;;;12.65;2.45;;;17.60;84.00;;;;;;5111820;28;20032;-73
2022/10/18 07:48:31;;;;;;;14.25;2.80;;;17.60;84.00;;;;;;5112743;28;20590;-73
2022/10/18 07:51:00;;;;;;;12.98;3.45;;;17.60;84.00;;;;;;5112028;28;20024;-74
2022/10/18 07:53:27;;;;;;;17.98;2.50;;;17.60;84.00;;;;;;5112843;28;20455;-73
2022/10/18 07:55:58;;;;;;;18.30;3.42;;;17.60;84.00;;;;;;5111826;28;20028;-74
2022/10/18 07:58:24;;;;;;;15.10;2.67;;;17.60;84.00;;;;;;5112859;28;20062;-74
2022/10/18 08:00:50;;;;;;;12.98;2.92;;;17.60;84.00;;;;;;5112919;28;20418;-74
2022/10/18 08:03:15;;;;;;;9.50;2.60;;;17.60;84.00;;;;;;5112740;28;20032;-73
2022/10/18 08:05:41;;;;;;;12.98;3.15;;;17.60;84.00;;;;;;5112838;28;20015;-74
2022/10/18 08:08:06;;;;;;;15.10;3.20;;;17.60;83.90;;;;;;5093090;28;20085;-74
2022/10/18 08:10:33;;;;;;;15.43;3.58;;;17.60;84.00;;;;;;5092303;28;20060;-74
2022/10/18 08:12:59;;;;;;;12.55;3.10;;;17.60;83.90;;;;;;5074466;28;20103;-73
2022/10/18 08:15:25;;;;;;;11.85;3.10;;;17.60;83.90;;;;;;5109116;28;20439;-74
2022/10/18 08:17:51;;;;;;;14.20;3.05;;;17.60;83.90;;;;;;5119434;28;20096;-74
2022/10/18 08:20:17;;;;;;;15.25;3.17;;;17.60;83.90;;;;;;5101337;28;20407;-73
2022/10/18 08:22:42;;;;;;;11.52;3.20;;;17.60;83.90;;;;;;5119625;28;20405;-73
2022/10/18 08:25:08;;;;;;;15.95;2.92;;;17.60;83.80;;;;;;5119454;28;20049;-73
2022/10/18 08:27:34;;;;;;;9.45;2.95;;;17.60;83.80;;;;;;5119394;28;20058;-74
2022/10/18 08:30:00;;;;;;;11.18;3.33;;;17.60;83.80;;;;;;5118155;28;20038;-74
2022/10/18 08:32:27;;;;;;;13.00;3.40;;;17.60;83.80;;;;;;5118087;28;20093;-74
2022/10/18 08:34:53;;;;;;;12.32;3.17;;;17.60;83.80;;;;;;5119570;27;20480;-74
2022/10/18 08:37:18;;;;;;;13.02;3.40;;;17.60;83.70;;;;;;5119287;28;20028;-74
2022/10/18 08:39:44;;;;;;;15.10;2.92;;;17.50;83.70;;;;;;5118167;28;20023;-73
2022/10/18 08:42:20;;;;;;;13.40;3.05;;;17.50;83.70;;;;;;5118115;28;20020;-73
2022/10/18 08:44:49;;;;;;;13.27;2.90;;;17.50;83.70;;;;;;5118214;28;20020;-74
2022/10/18 08:47:23;;;;;;;14.57;3.75;;;17.50;83.70;;;;;;5117800;28;20023;-74
2022/10/18 08:49:50;;;;;;;9.68;2.90;;;17.50;83.70;;;;;;5101359;28;20099;-73
2022/10/18 08:52:21;;;;;;;14.32;3.08;;;17.50;83.60;;;;;;5118144;28;20064;-73
2022/10/18 08:54:59;;;;;;;13.05;2.88;;;17.50;83.70;;;;;;5119175;28;20115;-74
2022/10/18 08:57:24;;;;;;;10.75;2.60;;;17.50;83.70;;;;;;5117803;28;20496;-73
2022/10/18 08:59:50;;;;;;;8.18;3.13;;;17.50;83.70;;;;;;5119285;28;20023;-73
2022/10/18 09:02:37;;;;;;;11.05;2.88;;;17.50;83.70;;;;;;5119005;28;20035;-73
2022/10/18 09:05:07;;;;;;;11.88;3.08;;;17.60;83.70;;;;;;5118068;28;20062;-73
2022/10/18 09:07:52;;;;;;;7.20;2.60;;;17.50;83.60;;;;;;5103978;28;20032;-73
2022/10/18 09:10:23;;;;;;;5.90;2.83;;;17.50;83.60;;;;;;5097707;28;20035;-73
2022/10/18 09:13:19;;;;;;;7.88;2.78;;;17.50;83.70;;;;;;5098809;28;20024;-74
2022/10/18 09:15:58;;;;;;;12.60;2.60;;;17.50;83.60;;;;;;5116028;28;20027;-73
2022/10/18 09:18:33;;;;;;;9.38;3.15;;;17.50;83.50;;;;;;5117882;28;20016;-73
2022/10/18 09:21:00;;;;;;;11.30;3.05;;;17.50;83.50;;;;;;5119156;28;20031;-74
2022/10/18 09:23:39;;;;;;;10.25;3.00;;;17.50;83.60;;;;;;5117656;28;20023;-73
2022/10/18 09:26:21;;;;;;;12.57;2.90;;;17.50;83.60;;;;;;5117794;28;20115;-73
2022/10/18 09:29:08;;;;;;;11.43;2.65;;;17.50;83.60;;;;;;5096715;28;20031;-73
2022/10/18 09:32:02;;;;;;;9.35;2.55;;;17.50;83.60;;;;;;5115545;28;20029;-74
2022/10/18 09:34:31;;;;;;;9.13;2.97;;;17.50;83.50;;;;;;5114531;28;20022;-74
2022/10/18 09:36:57;;;;;;;8.20;2.53;;;17.50;83.60;;;;;;5097744;28;20447;-74
2022/10/18 09:39:28;;;;;;;8.32;2.85;;;17.50;83.60;;;;;;5097245;28;20057;-73
2022/10/18 09:42:00;;;;;;;8.60;2.58;;;17.50;83.60;;;;;;5115495;28;20102;-73
2022/10/18 09:44:40;;;;;;;6.70;3.03;;;17.50;83.60;;;;;;5113927;28;20028;-73
2022/10/18 09:47:09;;;;;;;8.90;2.70;;;17.50;83.50;;;;;;5097565;28;20031;-73
2022/10/18 09:49:39;;;;;;;8.25;2.58;;;17.50;83.50;;;;;;5114005;28;20027;-73
2022/10/18 09:52:08;;;;;;;8.77;2.55;;;17.50;83.60;;;;;;5097681;28;20094;-74
2022/10/18 09:54:39;;;;;;;6.43;2.13;;;17.50;83.50;;;;;;5113947;28;20035;-74
2022/10/18 09:57:19;;;;;;;9.20;2.83;;;17.50;83.50;;;;;;5097688;28;20020;-74
2022/10/18 09:59:46;;;;;;;15.85;3.13;;;17.50;83.50;;;;;;5113519;28;20019;-73
2022/10/18 10:02:21;;;;;;;10.95;3.05;;;17.40;83.50;;;;;;5113974;28;20098;-74
2022/10/18 10:04:48;;;;;;;9.00;3.40;;;17.40;83.50;;;;;;5096909;28;20029;-73
2022/10/18 10:07:19;;;;;;;8.65;2.58;;;17.40;84.50;;;;;;5101379;28;20038;-73
2022/10/18 10:09:55;;;;;;;8.68;2.20;;;17.50;83.50;;;;;;5093243;28;20078;-74
2022/10/18 10:12:32;;;;;;;6.13;2.53;;;17.50;83.40;;;;;;5093676;28;20027;-74
2022/10/18 10:15:24;;;;;;;8.63;2.50;;;17.40;83.40;;;;;;5087111;28;20022;-74
2022/10/18 10:18:00;;;;;;;7.20;2.80;;;17.40;83.40;;;;;;5113484;28;20026;-74
2022/10/18 10:20:41;;;;;;;10.30;2.47;;;17.40;83.40;;;;;;5113666;28;20031;-73
2022/10/18 10:23:12;;;;;;;7.97;2.50;;;17.40;83.50;;;;;;5113497;28;20023;-73
2022/10/18 10:25:38;;;;;;;7.55;2.90;;;17.40;83.50;;;;;;5113477;28;20024;-74
2022/10/18 10:28:06;;;;;;;7.93;2.85;;;17.40;83.50;;;;;;5096230;28;20106;-74
2022/10/18 10:30:33;;;;;;;10.10;3.08;;;17.40;83.50;;;;;;5096350;28;20073;-74
2022/10/18 10:32:59;;;;;;;7.95;2.35;;;17.40;83.40;;;;;;5113263;28;20016;-73
2022/10/18 10:35:29;;;;;;;7.43;2.35;;;17.50;83.50;;;;;;5096463;28;20102;-73
2022/10/18 10:37:55;;;;;;;5.40;2.25;;;17.40;83.50;;;;;;5112948;28;20115;-74
2022/10/18 10:40:22;;;;;;;7.25;2.92;;;17.40;83.50;;;;;;5096090;28;20456;-73
2022/10/18 10:43:26;;;;;;;4.50;2.08;;;17.40;83.60;;;;;;5096151;28;20100;-73
2022/10/18 10:46:00;;;;;;;6.72;2.42;;;17.40;83.50;;;;;;5100701;28;20050;-73
2022/10/18 10:48:26;;;;;;;9.35;2.78;;;17.40;83.60;;;;;;5096306;28;20024;-73
2022/10/18 10:50:59;;;;;;;5.18;2.28;;;17.40;83.50;;;;;;5113033;28;20024;-73
2022/10/18 10:53:29;;;;;;;;;;;17.40;83.60;;;;;;5113123;28;20513;-73
2022/10/18 10:55:55;;;;;;;6.18;2.50;;;17.40;83.50;;;;;;5112883;28;19908;-74
2022/10/18 10:58:21;;;;;;;5.72;2.50;;;17.40;83.50;;;;;;5095789;28;20023;-74
2022/10/18 11:00:46;;;;;;;5.18;2.10;;;17.40;84.60;;;;;;5113945;28;20023;-74
2022/10/18 11:03:13;;;;;;;4.15;2.47;;;17.40;83.60;;;;;;5095875;28;20110;-73
2022/10/18 11:05:43;;;;;;;5.43;2.17;;;17.40;83.60;;;;;;5113782;28;20024;-73
2022/10/18 11:08:09;;;;;;;7.70;2.45;;;17.40;83.60;;;;;;5092426;28;20035;-73
2022/10/18 11:10:46;;;;;;;7.22;2.53;;;17.40;83.60;;;;;;5075398;28;20027;-74
2022/10/18 11:13:22;;;;;;;5.47;2.20;;;17.40;83.60;;;;;;5076494;28;20080;-74
2022/10/18 11:15:59;;;;;;;8.48;2.28;;;17.40;83.60;;;;;;5109817;28;20020;-73
2022/10/18 11:18:32;;;;;;;4.60;2.15;;;17.40;83.60;;;;;;5095665;28;20024;-73
2022/10/18 11:21:19;;;;;;;4.95;2.10;;;17.40;83.70;;;;;;5095983;28;20038;-73
2022/10/18 11:23:44;;;;;;;5.45;1.95;;;17.40;83.60;;;;;;5095415;28;20416;-73
2022/10/18 11:26:10;;;;;;;5.13;2.00;;;17.40;83.60;;;;;;5112235;28;20023;-73
2022/10/18 11:28:41;;;;;;;3.85;2.30;;;17.40;83.60;;;;;;5113358;28;20549;-73
2022/10/18 11:31:58;;;;;;;5.20;2.08;;;17.40;83.70;;;;;;5113406;28;20579;-73
2022/10/18 11:35:03;;;;;;;4.75;2.00;;;17.40;83.60;;;;;;5087021;28;20036;-73
2022/10/18 11:37:59;;;;;;;3.85;2.17;;;17.40;83.60;;;;;;5112376;28;20020;-73
2022/10/18 11:40:46;;;;;;;5.47;2.22;;;17.40;83.70;;;;;;5112992;28;20045;-73
2022/10/18 11:43:26;;;;;;;5.40;2.22;;;17.40;83.70;;;;;;5095404;28;20027;-73
2022/10/18 11:46:03;;;;;;;6.85;2.28;;;17.40;83.70;;;;;;5096279;28;20023;-73
2022/10/18 11:48:39;;;;;;;6.97;2.30;;;17.40;83.70;;;;;;5113085;28;20535;-73
2022/10/18 11:51:29;;;;;;;5.80;2.20;;;17.40;83.70;;;;;;5094603;28;20063;-73
2022/10/18 11:54:28;;;;;;;5.07;2.45;;;17.40;83.70;;;;;;5111470;28;20054;-73
2022/10/18 11:57:28;;;;;;;4.30;2.10;;;17.40;83.70;;;;;;5112963;28;20504;-73
2022/10/18 11:59:53;;;;;;;6.28;2.30;;;17.40;83.70;;;;;;5112830;28;20027;-73
2022/10/18 12:02:36;;;;;;;6.70;2.38;;;17.40;83.80;;;;;;5111669;28;20094;-73
2022/10/18 12:05:02;;;;;;;6.13;1.92;;;17.40;83.80;;;;;;5111824;28;20097;-73
2022/10/18 12:07:34;;;;;;;4.32;2.13;;;17.40;83.80;;;;;;5098582;28;20074;-73
2022/10/18 12:09:59;;;;;;;4.28;2.08;;;17.40;83.80;;;;;;5090881;28;20032;-73
2022/10/18 12:12:25;;;;;;;3.35;2.05;;;17.40;83.80;;;;;;5074695;28;20035;-73
2022/10/18 12:14:58;;;;;;;4.45;2.00;;;17.40;83.90;;;;;;5101968;28;20146;-73
2022/10/18 12:17:30;;;;;;;4.53;2.03;;;17.40;83.80;;;;;;5111701;28;20026;-73
2022/10/18 12:19:58;;;;;;;4.97;2.08;;;17.40;83.90;;;;;;5112602;28;20498;-73
2022/10/18 12:22:35;;;;;;;4.35;2.17;;;17.40;83.80;;;;;;5094714;28;20073;-73
2022/10/18 12:25:02;;;;;;;4.80;2.13;;;17.40;83.90;;;;;;5112620;28;20020;-73
2022/10/18 12:27:53;;;;;;;4.60;1.98;;;17.40;83.90;;;;;;5111653;28;20030;-73
2022/10/18 12:30:30;;;;;;;2.13;1.67;;;17.40;83.80;;;;;;5101755;28;20131;-73
2022/10/18 12:33:07;;;;;;;5.18;2.10;;;17.40;83.90;;;;;;5095564;28;20069;-73
2022/10/18 12:35:38;;;;;;;4.03;2.00;;;17.40;83.90;;;;;;5095541;28;20099;-73
2022/10/18 12:38:11;;;;;;;4.78;1.83;;;17.40;83.90;;;;;;5094775;28;20034;-73
2022/10/18 12:40:41;;;;;;;5.40;2.30;;;17.40;83.90;;;;;;5111360;28;20020;-73
2022/10/18 12:43:26;;;;;;;4.22;2.05;;;17.40;84.00;;;;;;5077602;28;20082;-73
2022/10/18 12:45:59;;;;;;;4.70;2.05;;;17.40;84.00;;;;;;5095602;28;20024;-73
2022/10/18 12:48:37;;;;;;;3.97;1.83;;;17.40;84.00;;;;;;5111353;28;20106;-73
2022/10/18 12:51:15;;;;;;;4.93;1.98;;;17.40;84.00;;;;;;5111153;28;20553;-73
2022/10/18 12:53:45;;;;;;;5.22;1.95;;;17.40;84.00;;;;;;5110839;28;20515;-73
2022/10/18 12:56:36;;;;;;;2.38;1.85;;;17.40;84.00;;;;;;5094929;28;20035;-73
2022/10/18 12:59:25;;;;;;;4.63;1.50;;;17.40;84.00;;;;;;5101908;28;20427;-73